Terminal Aerodrome Forecast
Issued by NWS

Home | Current Version | Previous Version | Text Only | Print | Product List | Glossary On
Versions: 1 2 3 4 5 6 7 8 9 10 11 12 13 14 15 16
000
FTUS45 KSLC 232326
TAFEVW
TAF
KEVW 232326Z 2400/2424 35011KT P6SM VCSH SCT080 BKN150
     FM240100 19011KT P6SM VCSH SCT080 BKN150
     FM240400 10010KT P6SM FEW080 BKN150
     FM241700 22011KT P6SM SCT080 BKN150=

USA.gov is the U.S. government's official web portal to all federal, state and local government web resources and services.